CheckWX is a tool to help pilots better visualize weather data.  It is not intended as a substitute for an official pre-flight weather briefing.

21:35:47 UTC

RCTP METAR
Taiwan Taoyuan International Airport
Taipei, Taiwan
Current

36 mins ago

RCTP 212100Z VRB01KT 8000 SCT006 BKN010 17/16 Q1026 NOSIG RMK A3031
Observed
Feb-21 @ 21:00 UTC
Wind
  • Variable at 1 KTS
Visibility
8,000 meters
Flight Rules
MVFR
Cloud Levels
  • Scattered at 600' AGL
  • Broken at 1,000' AGL
Temperature
17°C / 63°F
Dewpoint
16°C / 61°F
Humidity
94%
Altimeter
30.3" Hg
Pressure
1025.92 hPa
Previous

1 hour ago

RCTP 212030Z VRB01KT 8000 SCT006 BKN010 17/16 Q1026 NOSIG RMK A3031
Observed
Feb-21 @ 20:30 UTC
Wind
  • Variable at 1 KTS
Visibility
8,000 meters
Flight Rules
MVFR
Cloud Levels
  • Scattered at 600' AGL
  • Broken at 1,000' AGL
Temperature
17°C / 63°F
Dewpoint
16°C / 61°F
Humidity
94%
Altimeter
30.3" Hg
Pressure
1025.92 hPa
Previous

2 hours ago

RCTP 212000Z 34004KT 280V360 8000 SCT006 BKN010 16/16 Q1026 NOSIG RMK A3031
Observed
Feb-21 @ 20:00 UTC
Wind
  • 340° at 4 KTS
Visibility
8,000 meters
Flight Rules
MVFR
Cloud Levels
  • Scattered at 600' AGL
  • Broken at 1,000' AGL
Temperature
16°C / 61°F
Dewpoint
16°C / 61°F
Humidity
100%
Altimeter
30.3" Hg
Pressure
1025.92 hPa